sensor_id;sensor_type;location;lat;lon;timestamp;temperature;humidity
8856;DHT22;4464;50.882;4.730;2024-01-07T00:01:11;4.40;99.90
8856;DHT22;4464;50.882;4.730;2024-01-07T00:03:37;4.50;99.90
8856;DHT22;4464;50.882;4.730;2024-01-07T00:06:10;4.50;99.90
8856;DHT22;4464;50.882;4.730;2024-01-07T00:08:36;4.40;99.90
8856;DHT22;4464;50.882;4.730;2024-01-07T00:11:02;4.30;99.90
8856;DHT22;4464;50.882;4.730;2024-01-07T00:13:30;4.30;99.90
8856;DHT22;4464;50.882;4.730;2024-01-07T00:15:56;4.40;99.90
8856;DHT22;4464;50.882;4.730;2024-01-07T00:18:21;4.30;99.90
8856;DHT22;4464;50.882;4.730;2024-01-07T00:20:49;4.30;99.90
8856;DHT22;4464;50.882;4.730;2024-01-07T00:23:15;4.30;99.90
8856;DHT22;4464;50.882;4.730;2024-01-07T00:25:43;4.30;99.90
8856;DHT22;4464;50.882;4.730;2024-01-07T00:28:09;4.30;99.90
8856;DHT22;4464;50.882;4.730;2024-01-07T00:30:35;4.30;99.90
8856;DHT22;4464;50.882;4.730;2024-01-07T00:33:01;4.30;99.90
8856;DHT22;4464;50.882;4.730;2024-01-07T00:35:26;4.30;99.90
8856;DHT22;4464;50.882;4.730;2024-01-07T00:37:52;4.20;99.90
8856;DHT22;4464;50.882;4.730;2024-01-07T00:40:18;4.10;99.90
8856;DHT22;4464;50.882;4.730;2024-01-07T00:42:43;4.10;99.90
8856;DHT22;4464;50.882;4.730;2024-01-07T00:45:09;4.00;99.90
8856;DHT22;4464;50.882;4.730;2024-01-07T00:47:37;4.00;99.90
8856;DHT22;4464;50.882;4.730;2024-01-07T00:50:05;3.90;99.90
8856;DHT22;4464;50.882;4.730;2024-01-07T00:52:33;3.90;99.90
8856;DHT22;4464;50.882;4.730;2024-01-07T00:55:00;3.90;99.90
8856;DHT22;4464;50.882;4.730;2024-01-07T00:57:29;3.90;99.90
8856;DHT22;4464;50.882;4.730;2024-01-07T00:59:55;3.80;99.90
8856;DHT22;4464;50.882;4.730;2024-01-07T01:02:22;3.90;99.90
8856;DHT22;4464;50.882;4.730;2024-01-07T01:04:53;3.90;99.90
8856;DHT22;4464;50.882;4.730;2024-01-07T01:07:19;4.00;99.90
8856;DHT22;4464;50.882;4.730;2024-01-07T01:09:44;3.90;99.90
8856;DHT22;4464;50.882;4.730;2024-01-07T01:12:10;3.90;99.90
8856;DHT22;4464;50.882;4.730;2024-01-07T01:14:36;3.90;99.90
8856;DHT22;4464;50.882;4.730;2024-01-07T01:17:01;3.90;99.90
8856;DHT22;4464;50.882;4.730;2024-01-07T01:19:27;3.90;99.90
8856;DHT22;4464;50.882;4.730;2024-01-07T01:21:53;3.90;99.90
8856;DHT22;4464;50.882;4.730;2024-01-07T01:24:21;3.90;99.90
8856;DHT22;4464;50.882;4.730;2024-01-07T01:26:49;3.90;99.90
8856;DHT22;4464;50.882;4.730;2024-01-07T01:29:15;3.90;99.90
8856;DHT22;4464;50.882;4.730;2024-01-07T01:31:40;3.90;99.90
8856;DHT22;4464;50.882;4.730;2024-01-07T01:34:06;3.90;99.90
8856;DHT22;4464;50.882;4.730;2024-01-07T01:36:32;3.90;99.90
8856;DHT22;4464;50.882;4.730;2024-01-07T01:38:57;3.80;99.90
8856;DHT22;4464;50.882;4.730;2024-01-07T01:41:23;3.80;99.90
8856;DHT22;4464;50.882;4.730;2024-01-07T01:43:49;3.80;99.90
8856;DHT22;4464;50.882;4.730;2024-01-07T01:46:14;3.70;99.90
8856;DHT22;4464;50.882;4.730;2024-01-07T01:48:41;3.70;99.90
8856;DHT22;4464;50.882;4.730;2024-01-07T01:51:08;3.60;99.90
8856;DHT22;4464;50.882;4.730;2024-01-07T01:53:34;3.70;99.90
8856;DHT22;4464;50.882;4.730;2024-01-07T01:56:03;3.70;99.90
8856;DHT22;4464;50.882;4.730;2024-01-07T01:58:29;3.70;99.90
8856;DHT22;4464;50.882;4.730;2024-01-07T02:00:58;3.60;99.90
8856;DHT22;4464;50.882;4.730;2024-01-07T02:03:24;3.70;99.90
8856;DHT22;4464;50.882;4.730;2024-01-07T02:05:52;3.60;99.90
8856;DHT22;4464;50.882;4.730;2024-01-07T02:08:19;3.60;99.90
8856;DHT22;4464;50.882;4.730;2024-01-07T02:10:45;3.60;99.90
8856;DHT22;4464;50.882;4.730;2024-01-07T02:13:11;3.50;99.90
8856;DHT22;4464;50.882;4.730;2024-01-07T02:15:36;3.50;99.90
8856;DHT22;4464;50.882;4.730;2024-01-07T02:18:07;3.50;99.90
8856;DHT22;4464;50.882;4.730;2024-01-07T02:20:35;3.50;99.90
8856;DHT22;4464;50.882;4.730;2024-01-07T02:23:04;3.50;99.90
8856;DHT22;4464;50.882;4.730;2024-01-07T02:25:37;3.40;99.90
8856;DHT22;4464;50.882;4.730;2024-01-07T02:28:04;3.50;99.90
8856;DHT22;4464;50.882;4.730;2024-01-07T02:30:30;3.50;99.90
8856;DHT22;4464;50.882;4.730;2024-01-07T02:32:56;3.40;99.90
8856;DHT22;4464;50.882;4.730;2024-01-07T02:35:24;3.40;99.90
8856;DHT22;4464;50.882;4.730;2024-01-07T02:37:49;3.40;99.90
8856;DHT22;4464;50.882;4.730;2024-01-07T02:40:17;3.40;99.90
8856;DHT22;4464;50.882;4.730;2024-01-07T02:42:43;3.30;99.90
8856;DHT22;4464;50.882;4.730;2024-01-07T02:45:09;3.40;99.90
8856;DHT22;4464;50.882;4.730;2024-01-07T02:47:35;3.40;99.90
8856;DHT22;4464;50.882;4.730;2024-01-07T02:50:00;3.50;99.90
8856;DHT22;4464;50.882;4.730;2024-01-07T02:52:28;3.50;99.90
8856;DHT22;4464;50.882;4.730;2024-01-07T02:54:56;3.50;99.90
8856;DHT22;4464;50.882;4.730;2024-01-07T02:57:24;3.30;99.90
8856;DHT22;4464;50.882;4.730;2024-01-07T02:59:50;3.40;99.90
8856;DHT22;4464;50.882;4.730;2024-01-07T03:02:16;3.40;99.90
8856;DHT22;4464;50.882;4.730;2024-01-07T03:04:44;3.40;99.90
8856;DHT22;4464;50.882;4.730;2024-01-07T03:07:10;3.30;99.90
8856;DHT22;4464;50.882;4.730;2024-01-07T03:09:35;3.40;99.90
8856;DHT22;4464;50.882;4.730;2024-01-07T03:12:01;3.30;99.90
8856;DHT22;4464;50.882;4.730;2024-01-07T03:14:27;3.30;99.90
8856;DHT22;4464;50.882;4.730;2024-01-07T03:16:53;3.30;99.90
8856;DHT22;4464;50.882;4.730;2024-01-07T03:19:18;3.30;99.90
8856;DHT22;4464;50.882;4.730;2024-01-07T03:21:47;3.30;99.90
8856;DHT22;4464;50.882;4.730;2024-01-07T03:24:17;3.30;99.90
8856;DHT22;4464;50.882;4.730;2024-01-07T03:26:43;3.20;99.90
8856;DHT22;4464;50.882;4.730;2024-01-07T03:29:09;3.30;99.90
8856;DHT22;4464;50.882;4.730;2024-01-07T03:31:39;3.30;99.90
8856;DHT22;4464;50.882;4.730;2024-01-07T03:34:07;3.30;99.90
8856;DHT22;4464;50.882;4.730;2024-01-07T03:36:38;3.20;99.90
8856;DHT22;4464;50.882;4.730;2024-01-07T03:39:03;3.20;99.90
8856;DHT22;4464;50.882;4.730;2024-01-07T03:41:29;3.30;99.90
8856;DHT22;4464;50.882;4.730;2024-01-07T03:43:55;3.20;99.90
8856;DHT22;4464;50.882;4.730;2024-01-07T03:46:23;3.30;99.90
8856;DHT22;4464;50.882;4.730;2024-01-07T03:48:49;3.30;99.90
8856;DHT22;4464;50.882;4.730;2024-01-07T03:51:17;3.30;99.90
8856;DHT22;4464;50.882;4.730;2024-01-07T03:53:43;3.30;99.90
8856;DHT22;4464;50.882;4.730;2024-01-07T03:56:08;3.30;99.90
8856;DHT22;4464;50.882;4.730;2024-01-07T03:58:34;3.30;99.90
8856;DHT22;4464;50.882;4.730;2024-01-07T04:01:02;3.20;99.90
8856;DHT22;4464;50.882;4.730;2024-01-07T04:03:30;3.20;99.90
8856;DHT22;4464;50.882;4.730;2024-01-07T04:05:58;3.30;99.90
8856;DHT22;4464;50.882;4.730;2024-01-07T04:08:26;3.30;99.90
8856;DHT22;4464;50.882;4.730;2024-01-07T04:10:52;3.30;99.90
8856;DHT22;4464;50.882;4.730;2024-01-07T04:13:17;3.20;99.90
8856;DHT22;4464;50.882;4.730;2024-01-07T04:15:43;3.30;99.90
8856;DHT22;4464;50.882;4.730;2024-01-07T04:18:09;3.30;99.90
8856;DHT22;4464;50.882;4.730;2024-01-07T04:20:35;3.30;99.90
8856;DHT22;4464;50.882;4.730;2024-01-07T04:23:01;3.20;99.90
8856;DHT22;4464;50.882;4.730;2024-01-07T04:25:31;3.30;99.90
8856;DHT22;4464;50.882;4.730;2024-01-07T04:27:56;3.20;99.90
8856;DHT22;4464;50.882;4.730;2024-01-07T04:30:22;3.20;99.90
8856;DHT22;4464;50.882;4.730;2024-01-07T04:32:50;3.10;99.90
8856;DHT22;4464;50.882;4.730;2024-01-07T04:35:18;3.10;99.90
8856;DHT22;4464;50.882;4.730;2024-01-07T04:37:44;3.10;99.90
8856;DHT22;4464;50.882;4.730;2024-01-07T04:40:12;3.20;99.90
8856;DHT22;4464;50.882;4.730;2024-01-07T04:42:38;3.20;99.90
8856;DHT22;4464;50.882;4.730;2024-01-07T04:45:04;3.20;99.90
8856;DHT22;4464;50.882;4.730;2024-01-07T04:47:31;3.10;99.90
8856;DHT22;4464;50.882;4.730;2024-01-07T04:50:01;3.10;99.90
8856;DHT22;4464;50.882;4.730;2024-01-07T04:52:27;3.00;99.90
8856;DHT22;4464;50.882;4.730;2024-01-07T04:54:54;3.10;99.90
8856;DHT22;4464;50.882;4.730;2024-01-07T04:57:20;3.20;99.90
8856;DHT22;4464;50.882;4.730;2024-01-07T04:59:49;3.20;99.90
8856;DHT22;4464;50.882;4.730;2024-01-07T05:02:17;3.20;99.90
8856;DHT22;4464;50.882;4.730;2024-01-07T05:04:43;3.20;99.90
8856;DHT22;4464;50.882;4.730;2024-01-07T05:07:09;3.20;99.90
8856;DHT22;4464;50.882;4.730;2024-01-07T05:09:35;3.20;99.90
8856;DHT22;4464;50.882;4.730;2024-01-07T05:12:01;3.10;99.90
8856;DHT22;4464;50.882;4.730;2024-01-07T05:14:27;3.00;99.90
8856;DHT22;4464;50.882;4.730;2024-01-07T05:16:58;3.10;99.90
8856;DHT22;4464;50.882;4.730;2024-01-07T05:19:26;3.20;99.90
8856;DHT22;4464;50.882;4.730;2024-01-07T05:21:52;3.20;99.90
8856;DHT22;4464;50.882;4.730;2024-01-07T05:24:18;3.20;99.90
8856;DHT22;4464;50.882;4.730;2024-01-07T05:26:46;3.10;99.90
8856;DHT22;4464;50.882;4.730;2024-01-07T05:29:12;3.10;99.90
8856;DHT22;4464;50.882;4.730;2024-01-07T05:31:39;3.10;99.90
8856;DHT22;4464;50.882;4.730;2024-01-07T05:34:07;3.10;99.90
8856;DHT22;4464;50.882;4.730;2024-01-07T05:36:35;3.10;99.90
8856;DHT22;4464;50.882;4.730;2024-01-07T05:39:01;3.10;99.90
8856;DHT22;4464;50.882;4.730;2024-01-07T05:41:27;3.20;99.90
8856;DHT22;4464;50.882;4.730;2024-01-07T05:43:52;3.10;99.90
8856;DHT22;4464;50.882;4.730;2024-01-07T05:46:21;3.10;99.90
8856;DHT22;4464;50.882;4.730;2024-01-07T05:48:49;3.20;99.90
8856;DHT22;4464;50.882;4.730;2024-01-07T05:51:16;3.20;99.90
8856;DHT22;4464;50.882;4.730;2024-01-07T05:53:43;3.20;99.90
8856;DHT22;4464;50.882;4.730;2024-01-07T05:56:09;3.20;99.90
8856;DHT22;4464;50.882;4.730;2024-01-07T05:58:38;3.20;99.90
8856;DHT22;4464;50.882;4.730;2024-01-07T06:01:04;3.10;99.90
8856;DHT22;4464;50.882;4.730;2024-01-07T06:03:29;3.20;99.90
8856;DHT22;4464;50.882;4.730;2024-01-07T06:05:55;3.10;99.90
8856;DHT22;4464;50.882;4.730;2024-01-07T06:08:21;3.20;99.90
8856;DHT22;4464;50.882;4.730;2024-01-07T06:10:46;3.10;99.90
8856;DHT22;4464;50.882;4.730;2024-01-07T06:13:12;3.20;99.90
8856;DHT22;4464;50.882;4.730;2024-01-07T06:15:38;3.20;99.90
8856;DHT22;4464;50.882;4.730;2024-01-07T06:18:04;3.20;99.90
8856;DHT22;4464;50.882;4.730;2024-01-07T06:20:32;3.20;99.90
8856;DHT22;4464;50.882;4.730;2024-01-07T06:22:57;3.10;99.90
8856;DHT22;4464;50.882;4.730;2024-01-07T06:25:23;3.10;99.90
8856;DHT22;4464;50.882;4.730;2024-01-07T06:27:51;3.00;99.90
8856;DHT22;4464;50.882;4.730;2024-01-07T06:30:19;3.00;99.90
8856;DHT22;4464;50.882;4.730;2024-01-07T06:32:45;3.00;99.90
8856;DHT22;4464;50.882;4.730;2024-01-07T06:35:11;3.00;99.90
8856;DHT22;4464;50.882;4.730;2024-01-07T06:37:39;3.00;99.90
8856;DHT22;4464;50.882;4.730;2024-01-07T06:40:10;3.00;99.90
8856;DHT22;4464;50.882;4.730;2024-01-07T06:42:37;2.90;99.90
8856;DHT22;4464;50.882;4.730;2024-01-07T06:45:05;2.90;99.90
8856;DHT22;4464;50.882;4.730;2024-01-07T06:47:33;2.90;99.90
8856;DHT22;4464;50.882;4.730;2024-01-07T06:50:01;3.00;99.90
8856;DHT22;4464;50.882;4.730;2024-01-07T06:52:27;3.00;99.90
8856;DHT22;4464;50.882;4.730;2024-01-07T06:54:53;2.90;99.90
8856;DHT22;4464;50.882;4.730;2024-01-07T06:57:18;3.00;99.90
8856;DHT22;4464;50.882;4.730;2024-01-07T06:59:44;3.00;99.90
8856;DHT22;4464;50.882;4.730;2024-01-07T07:02:12;3.00;99.90
8856;DHT22;4464;50.882;4.730;2024-01-07T07:04:38;3.00;99.90
8856;DHT22;4464;50.882;4.730;2024-01-07T07:07:03;2.90;99.90
8856;DHT22;4464;50.882;4.730;2024-01-07T07:09:29;3.00;99.90
8856;DHT22;4464;50.882;4.730;2024-01-07T07:11:55;2.90;99.90
8856;DHT22;4464;50.882;4.730;2024-01-07T07:14:20;2.90;99.90
8856;DHT22;4464;50.882;4.730;2024-01-07T07:16:49;2.90;99.90
8856;DHT22;4464;50.882;4.730;2024-01-07T07:19:17;3.00;99.90
8856;DHT22;4464;50.882;4.730;2024-01-07T07:21:45;3.00;99.90
8856;DHT22;4464;50.882;4.730;2024-01-07T07:24:15;3.00;99.90
8856;DHT22;4464;50.882;4.730;2024-01-07T07:26:40;2.90;99.90
8856;DHT22;4464;50.882;4.730;2024-01-07T07:29:09;3.00;99.90
8856;DHT22;4464;50.882;4.730;2024-01-07T07:31:35;3.00;99.90
8856;DHT22;4464;50.882;4.730;2024-01-07T07:34:03;3.00;99.90
8856;DHT22;4464;50.882;4.730;2024-01-07T07:36:29;3.00;99.90
8856;DHT22;4464;50.882;4.730;2024-01-07T07:38:55;3.00;99.90
8856;DHT22;4464;50.882;4.730;2024-01-07T07:41:21;3.00;99.90
8856;DHT22;4464;50.882;4.730;2024-01-07T07:43:46;3.00;99.90
8856;DHT22;4464;50.882;4.730;2024-01-07T07:46:12;3.00;99.90
8856;DHT22;4464;50.882;4.730;2024-01-07T07:48:41;3.00;99.90
8856;DHT22;4464;50.882;4.730;2024-01-07T07:51:07;3.00;99.90
8856;DHT22;4464;50.882;4.730;2024-01-07T07:53:32;3.10;99.90
8856;DHT22;4464;50.882;4.730;2024-01-07T07:56:01;2.90;99.90
8856;DHT22;4464;50.882;4.730;2024-01-07T07:58:29;2.90;99.90
8856;DHT22;4464;50.882;4.730;2024-01-07T08:00:57;2.90;99.90
8856;DHT22;4464;50.882;4.730;2024-01-07T08:03:23;3.00;99.90
8856;DHT22;4464;50.882;4.730;2024-01-07T08:05:49;2.90;99.90
8856;DHT22;4464;50.882;4.730;2024-01-07T08:08:15;2.80;99.90
8856;DHT22;4464;50.882;4.730;2024-01-07T08:10:42;2.90;99.90
8856;DHT22;4464;50.882;4.730;2024-01-07T08:13:08;2.90;99.90
8856;DHT22;4464;50.882;4.730;2024-01-07T08:15:35;2.90;99.90
8856;DHT22;4464;50.882;4.730;2024-01-07T08:18:01;2.90;99.90
8856;DHT22;4464;50.882;4.730;2024-01-07T08:20:30;2.90;99.90
8856;DHT22;4464;50.882;4.730;2024-01-07T08:22:55;3.00;99.90
8856;DHT22;4464;50.882;4.730;2024-01-07T08:25:21;2.90;99.90
8856;DHT22;4464;50.882;4.730;2024-01-07T08:27:49;2.90;99.90
8856;DHT22;4464;50.882;4.730;2024-01-07T08:30:14;2.80;99.90
8856;DHT22;4464;50.882;4.730;2024-01-07T08:32:40;2.90;99.90
8856;DHT22;4464;50.882;4.730;2024-01-07T08:35:07;2.90;99.90
8856;DHT22;4464;50.882;4.730;2024-01-07T08:37:32;2.90;99.90
8856;DHT22;4464;50.882;4.730;2024-01-07T08:40:00;2.90;99.90
8856;DHT22;4464;50.882;4.730;2024-01-07T08:42:27;2.80;99.90
8856;DHT22;4464;50.882;4.730;2024-01-07T08:44:55;2.80;99.90
8856;DHT22;4464;50.882;4.730;2024-01-07T08:47:26;2.80;99.90
8856;DHT22;4464;50.882;4.730;2024-01-07T08:49:51;2.80;99.90
8856;DHT22;4464;50.882;4.730;2024-01-07T08:52:19;2.80;99.90
8856;DHT22;4464;50.882;4.730;2024-01-07T08:54:45;2.70;99.90
8856;DHT22;4464;50.882;4.730;2024-01-07T08:57:10;2.80;99.90
8856;DHT22;4464;50.882;4.730;2024-01-07T08:59:36;2.80;99.90
8856;DHT22;4464;50.882;4.730;2024-01-07T09:02:02;2.70;99.90
8856;DHT22;4464;50.882;4.730;2024-01-07T09:04:28;2.80;99.90
8856;DHT22;4464;50.882;4.730;2024-01-07T09:06:56;2.80;99.90
8856;DHT22;4464;50.882;4.730;2024-01-07T09:09:21;2.80;99.90
8856;DHT22;4464;50.882;4.730;2024-01-07T09:11:50;2.80;99.90
8856;DHT22;4464;50.882;4.730;2024-01-07T09:14:17;2.70;99.90
8856;DHT22;4464;50.882;4.730;2024-01-07T09:16:45;2.70;99.90
8856;DHT22;4464;50.882;4.730;2024-01-07T09:19:11;2.70;99.90
8856;DHT22;4464;50.882;4.730;2024-01-07T09:21:37;2.70;99.90
8856;DHT22;4464;50.882;4.730;2024-01-07T09:24:03;2.70;99.90
8856;DHT22;4464;50.882;4.730;2024-01-07T09:26:29;2.70;99.90
8856;DHT22;4464;50.882;4.730;2024-01-07T09:28:57;2.70;99.90
8856;DHT22;4464;50.882;4.730;2024-01-07T09:31:25;2.60;99.90
8856;DHT22;4464;50.882;4.730;2024-01-07T09:33:51;2.60;99.90
8856;DHT22;4464;50.882;4.730;2024-01-07T09:36:19;2.50;99.90
8856;DHT22;4464;50.882;4.730;2024-01-07T09:38:45;2.50;99.90
8856;DHT22;4464;50.882;4.730;2024-01-07T09:41:10;2.50;99.90
8856;DHT22;4464;50.882;4.730;2024-01-07T09:43:36;2.50;99.90
8856;DHT22;4464;50.882;4.730;2024-01-07T09:46:02;2.40;99.90
8856;DHT22;4464;50.882;4.730;2024-01-07T09:48:28;2.40;99.90
8856;DHT22;4464;50.882;4.730;2024-01-07T09:50:56;2.40;99.90
8856;DHT22;4464;50.882;4.730;2024-01-07T09:53:25;2.30;99.90
8856;DHT22;4464;50.882;4.730;2024-01-07T09:56:05;2.30;99.90
8856;DHT22;4464;50.882;4.730;2024-01-07T09:58:36;2.30;99.90
8856;DHT22;4464;50.882;4.730;2024-01-07T10:01:07;2.30;99.90
8856;DHT22;4464;50.882;4.730;2024-01-07T10:03:32;2.20;99.90
8856;DHT22;4464;50.882;4.730;2024-01-07T10:05:58;2.30;99.90
8856;DHT22;4464;50.882;4.730;2024-01-07T10:08:24;2.30;99.90
8856;DHT22;4464;50.882;4.730;2024-01-07T10:10:50;2.30;99.90
8856;DHT22;4464;50.882;4.730;2024-01-07T10:13:20;2.40;99.90
8856;DHT22;4464;50.882;4.730;2024-01-07T10:15:48;2.40;99.90
8856;DHT22;4464;50.882;4.730;2024-01-07T10:18:14;2.40;99.90
8856;DHT22;4464;50.882;4.730;2024-01-07T10:20:40;2.40;99.90
8856;DHT22;4464;50.882;4.730;2024-01-07T10:23:05;2.40;99.90
8856;DHT22;4464;50.882;4.730;2024-01-07T10:25:35;2.30;99.90
8856;DHT22;4464;50.882;4.730;2024-01-07T10:28:02;2.30;99.90
8856;DHT22;4464;50.882;4.730;2024-01-07T10:30:31;2.30;99.90
8856;DHT22;4464;50.882;4.730;2024-01-07T10:32:58;2.30;99.90
8856;DHT22;4464;50.882;4.730;2024-01-07T10:35:34;2.40;99.90
8856;DHT22;4464;50.882;4.730;2024-01-07T10:38:03;2.30;99.90
8856;DHT22;4464;50.882;4.730;2024-01-07T10:40:31;2.30;99.90
8856;DHT22;4464;50.882;4.730;2024-01-07T10:43:00;2.30;99.90
8856;DHT22;4464;50.882;4.730;2024-01-07T10:45:26;2.30;99.90
8856;DHT22;4464;50.882;4.730;2024-01-07T10:47:55;2.30;99.90
8856;DHT22;4464;50.882;4.730;2024-01-07T10:50:26;2.30;99.90
8856;DHT22;4464;50.882;4.730;2024-01-07T10:52:58;2.30;99.90
8856;DHT22;4464;50.882;4.730;2024-01-07T10:55:26;2.30;99.90
8856;DHT22;4464;50.882;4.730;2024-01-07T10:57:54;2.40;99.90
8856;DHT22;4464;50.882;4.730;2024-01-07T11:00:21;2.30;99.90
8856;DHT22;4464;50.882;4.730;2024-01-07T11:03:11;2.40;99.90
8856;DHT22;4464;50.882;4.730;2024-01-07T11:08:54;2.50;99.90
8856;DHT22;4464;50.882;4.730;2024-01-07T11:11:35;2.50;99.90
8856;DHT22;4464;50.882;4.730;2024-01-07T11:14:01;2.40;99.90
8856;DHT22;4464;50.882;4.730;2024-01-07T11:19:12;2.40;99.90
8856;DHT22;4464;50.882;4.730;2024-01-07T11:21:38;2.40;99.90
8856;DHT22;4464;50.882;4.730;2024-01-07T11:24:04;2.40;99.90
8856;DHT22;4464;50.882;4.730;2024-01-07T11:26:30;2.40;99.90
8856;DHT22;4464;50.882;4.730;2024-01-07T11:28:58;2.40;99.90
8856;DHT22;4464;50.882;4.730;2024-01-07T11:34:08;2.40;99.90
8856;DHT22;4464;50.882;4.730;2024-01-07T11:36:37;2.40;99.90
8856;DHT22;4464;50.882;4.730;2024-01-07T11:39:06;2.40;99.90
8856;DHT22;4464;50.882;4.730;2024-01-07T11:41:34;2.40;99.90
8856;DHT22;4464;50.882;4.730;2024-01-07T11:44:03;2.50;99.90
8856;DHT22;4464;50.882;4.730;2024-01-07T11:46:29;2.50;99.90
8856;DHT22;4464;50.882;4.730;2024-01-07T11:48:58;2.50;99.90
8856;DHT22;4464;50.882;4.730;2024-01-07T11:51:31;2.40;99.90
8856;DHT22;4464;50.882;4.730;2024-01-07T11:54:00;2.40;99.90
8856;DHT22;4464;50.882;4.730;2024-01-07T11:56:28;2.50;99.90
8856;DHT22;4464;50.882;4.730;2024-01-07T11:58:54;2.50;99.90
8856;DHT22;4464;50.882;4.730;2024-01-07T12:01:22;2.40;99.90
8856;DHT22;4464;50.882;4.730;2024-01-07T12:03:47;2.50;99.90
8856;DHT22;4464;50.882;4.730;2024-01-07T12:06:13;2.40;99.90
8856;DHT22;4464;50.882;4.730;2024-01-07T12:08:43;2.40;99.90
8856;DHT22;4464;50.882;4.730;2024-01-07T12:11:13;2.30;99.90
8856;DHT22;4464;50.882;4.730;2024-01-07T12:13:42;2.30;99.90
8856;DHT22;4464;50.882;4.730;2024-01-07T12:16:09;2.40;99.90
8856;DHT22;4464;50.882;4.730;2024-01-07T12:18:43;2.40;99.90
8856;DHT22;4464;50.882;4.730;2024-01-07T12:21:09;2.40;99.90
8856;DHT22;4464;50.882;4.730;2024-01-07T12:23:36;2.50;99.90
8856;DHT22;4464;50.882;4.730;2024-01-07T12:26:11;2.40;99.90
8856;DHT22;4464;50.882;4.730;2024-01-07T12:28:38;2.40;99.90
8856;DHT22;4464;50.882;4.730;2024-01-07T12:31:04;2.40;99.90
8856;DHT22;4464;50.882;4.730;2024-01-07T12:33:31;2.40;99.90
8856;DHT22;4464;50.882;4.730;2024-01-07T12:36:00;2.40;99.90
8856;DHT22;4464;50.882;4.730;2024-01-07T12:38:28;2.40;99.90
8856;DHT22;4464;50.882;4.730;2024-01-07T12:40:54;2.30;99.90
8856;DHT22;4464;50.882;4.730;2024-01-07T12:43:20;2.40;99.90
8856;DHT22;4464;50.882;4.730;2024-01-07T12:45:49;2.30;99.90
8856;DHT22;4464;50.882;4.730;2024-01-07T12:48:15;2.30;99.90
8856;DHT22;4464;50.882;4.730;2024-01-07T12:50:40;2.40;99.90
8856;DHT22;4464;50.882;4.730;2024-01-07T12:53:06;2.40;99.90
8856;DHT22;4464;50.882;4.730;2024-01-07T12:55:34;2.50;99.90
8856;DHT22;4464;50.882;4.730;2024-01-07T12:58:01;2.50;99.90
8856;DHT22;4464;50.882;4.730;2024-01-07T13:00:27;2.50;99.90
8856;DHT22;4464;50.882;4.730;2024-01-07T13:02:54;2.50;99.90
8856;DHT22;4464;50.882;4.730;2024-01-07T13:05:20;2.60;99.90
8856;DHT22;4464;50.882;4.730;2024-01-07T13:07:46;2.60;99.90
8856;DHT22;4464;50.882;4.730;2024-01-07T13:10:12;2.60;99.90
8856;DHT22;4464;50.882;4.730;2024-01-07T13:12:40;2.60;99.90
8856;DHT22;4464;50.882;4.730;2024-01-07T13:15:06;2.50;99.90
8856;DHT22;4464;50.882;4.730;2024-01-07T13:17:34;2.60;99.90
8856;DHT22;4464;50.882;4.730;2024-01-07T13:20:00;2.60;99.90
8856;DHT22;4464;50.882;4.730;2024-01-07T13:22:26;2.70;99.90
8856;DHT22;4464;50.882;4.730;2024-01-07T13:24:54;2.70;99.90
8856;DHT22;4464;50.882;4.730;2024-01-07T13:27:20;2.60;99.90
8856;DHT22;4464;50.882;4.730;2024-01-07T13:29:48;2.60;99.90
8856;DHT22;4464;50.882;4.730;2024-01-07T13:32:14;2.60;99.90
8856;DHT22;4464;50.882;4.730;2024-01-07T13:34:43;2.50;99.90
8856;DHT22;4464;50.882;4.730;2024-01-07T13:37:09;2.50;99.90
8856;DHT22;4464;50.882;4.730;2024-01-07T13:39:35;2.40;99.90
8856;DHT22;4464;50.882;4.730;2024-01-07T13:42:02;2.50;99.90
8856;DHT22;4464;50.882;4.730;2024-01-07T13:44:27;2.40;99.90
8856;DHT22;4464;50.882;4.730;2024-01-07T13:46:53;2.40;99.90
8856;DHT22;4464;50.882;4.730;2024-01-07T13:49:22;2.40;99.90
8856;DHT22;4464;50.882;4.730;2024-01-07T13:51:47;2.40;99.90
8856;DHT22;4464;50.882;4.730;2024-01-07T13:54:13;2.50;99.90
8856;DHT22;4464;50.882;4.730;2024-01-07T13:56:42;2.50;99.90
8856;DHT22;4464;50.882;4.730;2024-01-07T13:59:11;2.60;99.90
8856;DHT22;4464;50.882;4.730;2024-01-07T14:01:38;2.50;99.90
8856;DHT22;4464;50.882;4.730;2024-01-07T14:04:04;2.50;99.90
8856;DHT22;4464;50.882;4.730;2024-01-07T14:06:30;2.40;99.90
8856;DHT22;4464;50.882;4.730;2024-01-07T14:08:57;2.40;99.90
8856;DHT22;4464;50.882;4.730;2024-01-07T14:11:23;2.40;99.90
8856;DHT22;4464;50.882;4.730;2024-01-07T14:13:49;2.40;99.90
8856;DHT22;4464;50.882;4.730;2024-01-07T14:16:14;2.40;99.90
8856;DHT22;4464;50.882;4.730;2024-01-07T14:18:43;2.40;99.90
8856;DHT22;4464;50.882;4.730;2024-01-07T14:21:09;2.40;99.90
8856;DHT22;4464;50.882;4.730;2024-01-07T14:23:35;2.40;99.90
8856;DHT22;4464;50.882;4.730;2024-01-07T14:26:01;2.30;99.90
8856;DHT22;4464;50.882;4.730;2024-01-07T14:28:29;2.30;99.90
8856;DHT22;4464;50.882;4.730;2024-01-07T14:30:55;2.30;99.90
8856;DHT22;4464;50.882;4.730;2024-01-07T14:33:21;2.30;99.90
8856;DHT22;4464;50.882;4.730;2024-01-07T14:35:47;2.30;99.90
8856;DHT22;4464;50.882;4.730;2024-01-07T14:38:12;2.30;99.90
8856;DHT22;4464;50.882;4.730;2024-01-07T14:40:38;2.30;99.90
8856;DHT22;4464;50.882;4.730;2024-01-07T14:43:06;2.30;99.90
8856;DHT22;4464;50.882;4.730;2024-01-07T14:45:32;2.30;99.90
8856;DHT22;4464;50.882;4.730;2024-01-07T14:48:00;2.30;99.90
8856;DHT22;4464;50.882;4.730;2024-01-07T14:50:25;2.30;99.90
8856;DHT22;4464;50.882;4.730;2024-01-07T14:52:53;2.30;99.90
8856;DHT22;4464;50.882;4.730;2024-01-07T14:55:19;2.30;99.90
8856;DHT22;4464;50.882;4.730;2024-01-07T14:57:45;2.30;99.90
8856;DHT22;4464;50.882;4.730;2024-01-07T15:00:11;2.30;99.90
8856;DHT22;4464;50.882;4.730;2024-01-07T15:02:36;2.30;99.90
8856;DHT22;4464;50.882;4.730;2024-01-07T15:05:06;2.20;99.90
8856;DHT22;4464;50.882;4.730;2024-01-07T15:07:31;2.20;99.90
8856;DHT22;4464;50.882;4.730;2024-01-07T15:09:57;2.20;99.90
8856;DHT22;4464;50.882;4.730;2024-01-07T15:12:25;2.20;99.90
8856;DHT22;4464;50.882;4.730;2024-01-07T15:15:02;2.20;99.90
8856;DHT22;4464;50.882;4.730;2024-01-07T15:17:30;2.20;99.90
8856;DHT22;4464;50.882;4.730;2024-01-07T15:19:58;2.10;99.90
8856;DHT22;4464;50.882;4.730;2024-01-07T15:22:26;2.00;99.90
8856;DHT22;4464;50.882;4.730;2024-01-07T15:24:52;2.00;99.90
8856;DHT22;4464;50.882;4.730;2024-01-07T15:27:20;2.00;99.90
8856;DHT22;4464;50.882;4.730;2024-01-07T15:29:46;1.80;99.90
8856;DHT22;4464;50.882;4.730;2024-01-07T15:32:12;1.80;99.90
8856;DHT22;4464;50.882;4.730;2024-01-07T15:34:38;1.80;99.90
8856;DHT22;4464;50.882;4.730;2024-01-07T15:37:03;1.80;99.90
8856;DHT22;4464;50.882;4.730;2024-01-07T15:39:29;1.70;99.90
8856;DHT22;4464;50.882;4.730;2024-01-07T15:41:55;1.70;99.90
8856;DHT22;4464;50.882;4.730;2024-01-07T15:44:22;1.60;99.90
8856;DHT22;4464;50.882;4.730;2024-01-07T15:46:49;1.50;99.90
8856;DHT22;4464;50.882;4.730;2024-01-07T15:49:14;1.50;99.90
8856;DHT22;4464;50.882;4.730;2024-01-07T15:51:40;1.50;99.90
8856;DHT22;4464;50.882;4.730;2024-01-07T15:54:06;1.50;99.90
8856;DHT22;4464;50.882;4.730;2024-01-07T15:56:33;1.50;99.90
8856;DHT22;4464;50.882;4.730;2024-01-07T15:59:01;1.50;99.90
8856;DHT22;4464;50.882;4.730;2024-01-07T16:01:29;1.50;99.90
8856;DHT22;4464;50.882;4.730;2024-01-07T16:03:56;1.50;99.90
8856;DHT22;4464;50.882;4.730;2024-01-07T16:06:22;1.50;99.90
8856;DHT22;4464;50.882;4.730;2024-01-07T16:08:50;1.50;99.90
8856;DHT22;4464;50.882;4.730;2024-01-07T16:11:16;1.50;99.90
8856;DHT22;4464;50.882;4.730;2024-01-07T16:13:43;1.40;99.90
8856;DHT22;4464;50.882;4.730;2024-01-07T16:16:11;1.40;99.90
8856;DHT22;4464;50.882;4.730;2024-01-07T16:18:37;1.40;99.90
8856;DHT22;4464;50.882;4.730;2024-01-07T16:21:05;1.40;99.90
8856;DHT22;4464;50.882;4.730;2024-01-07T16:23:33;1.40;99.90